createdAt,value
2022-08-12T00:00:48.373Z,100.00
2022-08-12T00:03:34.101Z,100.00
2022-08-12T00:06:21.542Z,100.00
2022-08-12T00:09:06.874Z,100.00
2022-08-12T00:11:52.749Z,100.00
2022-08-12T00:14:37.974Z,100.00
2022-08-12T00:17:23.475Z,100.00
2022-08-12T00:20:09.003Z,100.00
2022-08-12T00:22:59.359Z,100.00
2022-08-12T00:26:23.209Z,100.00
2022-08-12T00:28:59.940Z,100.00
2022-08-12T00:31:45.142Z,100.00
2022-08-12T00:34:32.339Z,100.00
2022-08-12T00:37:17.524Z,100.00
2022-08-12T00:40:11.343Z,100.00
2022-08-12T00:42:40.427Z,100.00
2022-08-12T00:45:08.755Z,100.00
2022-08-12T00:47:37.134Z,100.00
2022-08-12T00:50:06.433Z,100.00
2022-08-12T00:52:35.273Z,100.00
2022-08-12T00:55:06.219Z,100.00
2022-08-12T00:57:36.363Z,100.00
2022-08-12T01:00:08.412Z,100.00
2022-08-12T01:02:38.812Z,100.00
2022-08-12T01:05:26.501Z,100.00
2022-08-12T01:08:12.395Z,100.00
2022-08-12T01:11:00.663Z,100.00
2022-08-12T01:13:29.704Z,100.00
2022-08-12T01:15:59.073Z,100.00
2022-08-12T01:18:28.327Z,100.00
2022-08-12T01:21:04.963Z,100.00
2022-08-12T01:24:29.657Z,100.00
2022-08-12T01:26:52.412Z,100.00
2022-08-12T01:29:26.106Z,100.00
2022-08-12T01:31:56.316Z,100.00
2022-08-12T01:34:36.517Z,100.00
2022-08-12T01:37:07.167Z,100.00
2022-08-12T01:40:34.099Z,100.00
2022-08-12T01:42:43.275Z,100.00
2022-08-12T01:45:12.257Z,100.00
2022-08-12T01:47:50.637Z,100.00
2022-08-12T01:50:22.756Z,100.00
2022-08-12T01:52:57.767Z,100.00
2022-08-12T01:55:26.655Z,100.00
2022-08-12T01:58:13.036Z,100.00
2022-08-12T02:00:55.450Z,100.00
2022-08-12T02:04:00.194Z,100.00
2022-08-12T02:06:49.370Z,100.00
2022-08-12T02:09:37.706Z,100.00
2022-08-12T02:12:10.625Z,100.00
2022-08-12T02:14:52.528Z,100.00
2022-08-12T02:17:55.093Z,100.00
2022-08-12T02:20:43.883Z,100.00
2022-08-12T02:23:20.397Z,100.00
2022-08-12T02:25:48.648Z,100.00
2022-08-12T02:28:16.528Z,100.00
2022-08-12T02:30:45.661Z,100.00
2022-08-12T02:33:13.426Z,100.00
2022-08-12T02:35:41.083Z,100.00
2022-08-12T02:38:10.999Z,100.00
2022-08-12T02:40:41.228Z,100.00
2022-08-12T02:43:15.422Z,100.00
2022-08-12T02:45:47.970Z,100.00
2022-08-12T02:48:20.091Z,100.00
2022-08-12T02:50:51.314Z,100.00
2022-08-12T02:53:19.112Z,100.00
2022-08-12T02:55:46.843Z,100.00
2022-08-12T02:58:15.019Z,100.00
2022-08-12T03:00:43.869Z,100.00
2022-08-12T03:03:15.245Z,100.00
2022-08-12T03:05:48.565Z,100.00
2022-08-12T03:08:32.093Z,100.00
2022-08-12T03:11:04.620Z,100.00
2022-08-12T03:13:37.071Z,100.00
2022-08-12T03:16:05.328Z,100.00
2022-08-12T03:18:34.968Z,100.00
2022-08-12T03:21:03.268Z,100.00
2022-08-12T03:23:31.663Z,100.00
2022-08-12T03:26:01.590Z,100.00
2022-08-12T03:28:48.442Z,100.00
2022-08-12T03:31:16.704Z,100.00
2022-08-12T03:34:01.682Z,100.00
2022-08-12T03:36:33.440Z,100.00
2022-08-12T03:39:17.175Z,100.00
2022-08-12T03:41:58.038Z,100.00
2022-08-12T03:44:46.471Z,100.00
2022-08-12T03:47:35.888Z,100.00
2022-08-12T03:50:23.481Z,100.00
2022-08-12T03:53:08.725Z,100.00
2022-08-12T03:55:54.600Z,100.00
2022-08-12T03:58:40.661Z,100.00
2022-08-12T04:01:08.811Z,100.00
2022-08-12T04:03:56.788Z,100.00
2022-08-12T04:06:35.158Z,100.00
2022-08-12T04:09:05.295Z,100.00
2022-08-12T04:12:01.964Z,100.00
2022-08-12T04:14:29.929Z,100.00
2022-08-12T04:16:57.986Z,100.00
2022-08-12T04:19:26.336Z,100.00
2022-08-12T04:22:03.072Z,100.00
2022-08-12T04:24:34.931Z,100.00
2022-08-12T04:27:05.329Z,100.00
2022-08-12T04:30:31.590Z,100.00
2022-08-12T04:32:21.997Z,100.00
2022-08-12T04:34:50.072Z,100.00
2022-08-12T04:37:19.043Z,100.00
2022-08-12T04:39:47.227Z,100.00
2022-08-12T04:42:15.860Z,100.00
2022-08-12T04:44:44.341Z,100.00
2022-08-12T04:47:12.849Z,100.00
2022-08-12T04:49:41.023Z,100.00
2022-08-12T04:52:08.926Z,100.00
2022-08-12T04:54:37.990Z,100.00
2022-08-12T04:57:09.308Z,100.00
2022-08-12T04:59:47.284Z,100.00
2022-08-12T05:02:21.287Z,100.00
2022-08-12T05:04:51.340Z,100.00
2022-08-12T05:07:19.109Z,100.00
2022-08-12T05:10:00.549Z,100.00
2022-08-12T05:12:36.473Z,100.00
2022-08-12T05:15:19.178Z,100.00
2022-08-12T05:17:53.713Z,100.00
2022-08-12T05:20:22.278Z,100.00
2022-08-12T05:22:53.293Z,100.00
2022-08-12T05:25:26.583Z,100.00
2022-08-12T05:27:57.954Z,100.00
2022-08-12T05:30:26.530Z,100.00
2022-08-12T05:32:55.462Z,100.00
2022-08-12T05:35:23.262Z,100.00
2022-08-12T05:38:12.571Z,100.00
2022-08-12T05:40:42.100Z,100.00
2022-08-12T05:43:10.091Z,100.00
2022-08-12T05:45:42.857Z,93.62
2022-08-12T05:48:13.214Z,73.03
2022-08-12T05:50:41.043Z,60.54
2022-08-12T05:53:08.992Z,56.82
2022-08-12T05:55:37.138Z,47.70
2022-08-12T05:58:07.708Z,46.74
2022-08-12T06:00:36.157Z,44.64
2022-08-12T06:03:05.981Z,43.51
2022-08-12T06:05:54.332Z,43.11
2022-08-12T06:08:23.222Z,41.41
2022-08-12T06:10:50.977Z,41.64
2022-08-12T06:13:25.734Z,42.98
2022-08-12T06:16:09.705Z,43.99
2022-08-12T06:18:39.885Z,42.47
2022-08-12T06:21:08.417Z,43.81
2022-08-12T06:23:41.871Z,41.73
2022-08-12T06:26:11.522Z,42.21
2022-08-12T06:28:40.707Z,41.63
2022-08-12T06:31:25.811Z,41.76
2022-08-12T06:34:52.836Z,42.20
2022-08-12T06:36:43.069Z,40.65
2022-08-12T06:39:14.836Z,42.56
2022-08-12T06:42:30.824Z,38.64
2022-08-12T06:44:50.526Z,42.08
2022-08-12T06:47:19.703Z,39.54
2022-08-12T06:49:48.435Z,41.02
2022-08-12T06:52:17.161Z,42.82
2022-08-12T06:54:45.678Z,40.98
2022-08-12T06:58:08.090Z,43.41
2022-08-12T07:00:02.235Z,52.70
2022-08-12T07:02:32.550Z,58.14
2022-08-12T07:05:02.504Z,62.08
2022-08-12T07:07:30.470Z,63.69
2022-08-12T07:10:07.088Z,64.88
2022-08-12T07:12:35.941Z,68.02
2022-08-12T07:15:05.434Z,68.44
2022-08-12T07:17:37.456Z,68.72
2022-08-12T07:20:06.491Z,68.32
2022-08-12T07:22:34.323Z,68.69
2022-08-12T07:25:19.382Z,65.75
2022-08-12T07:27:47.700Z,69.31
2022-08-12T07:30:16.699Z,67.84
2022-08-12T07:32:49.593Z,68.46
2022-08-12T07:35:19.572Z,70.16
2022-08-12T07:37:48.650Z,69.63
2022-08-12T07:40:16.260Z,68.61
2022-08-12T07:42:44.227Z,68.41
2022-08-12T07:45:12.733Z,67.37
2022-08-12T07:47:43.141Z,65.38
2022-08-12T07:50:11.367Z,64.61
2022-08-12T07:52:42.068Z,62.67
2022-08-12T07:55:10.523Z,62.76
2022-08-12T07:57:49.817Z,60.55
2022-08-12T08:00:18.572Z,59.17
2022-08-12T08:02:49.209Z,59.71
2022-08-12T08:05:19.404Z,60.01
2022-08-12T08:07:47.087Z,56.53
2022-08-12T08:10:14.914Z,58.16
2022-08-12T08:12:53.476Z,59.22
2022-08-12T08:15:38.557Z,59.98
2022-08-12T08:18:26.461Z,57.12
2022-08-12T08:20:56.560Z,54.75
2022-08-12T08:23:46.373Z,53.62
2022-08-12T08:26:16.417Z,52.68
2022-08-12T08:28:44.480Z,53.07
2022-08-12T08:31:14.190Z,53.53
2022-08-12T08:34:09.687Z,53.18
2022-08-12T08:36:30.655Z,49.70
2022-08-12T08:38:58.891Z,51.06
2022-08-12T08:42:13.981Z,50.74
2022-08-12T08:44:32.097Z,50.32
2022-08-12T08:47:01.202Z,48.69
2022-08-12T08:49:30.222Z,49.76
2022-08-12T08:51:57.803Z,46.93
2022-08-12T08:54:25.627Z,48.03
2022-08-12T08:56:53.688Z,49.69
2022-08-12T08:59:22.313Z,47.03
2022-08-12T09:01:49.957Z,46.58
2022-08-12T09:05:12.013Z,46.10
2022-08-12T09:07:17.069Z,46.58
2022-08-12T09:10:03.389Z,46.09
2022-08-12T09:13:00.930Z,44.63
2022-08-12T09:18:30.957Z,45.89
2022-08-12T09:21:01.920Z,44.75
2022-08-12T09:23:59.063Z,45.20
2022-08-12T09:26:22.677Z,43.72
2022-08-12T09:28:56.487Z,42.29
2022-08-12T09:32:03.206Z,41.38
2022-08-12T09:34:29.553Z,40.44
2022-08-12T09:37:02.368Z,40.73
2022-08-12T09:40:06.243Z,39.32
2022-08-12T09:42:43.598Z,38.81
2022-08-12T09:46:20.543Z,39.38
2022-08-12T09:48:19.942Z,38.56
2022-08-12T09:50:52.006Z,37.33
2022-08-12T09:53:29.345Z,36.05
2022-08-12T09:56:58.209Z,36.21
2022-08-12T09:59:01.670Z,35.23
2022-08-12T10:01:35.451Z,35.19
2022-08-12T10:04:19.279Z,34.88
2022-08-12T10:06:53.989Z,35.18
2022-08-12T10:09:28.641Z,35.20
2022-08-12T10:12:32.852Z,33.83
2022-08-12T10:15:01.464Z,33.26
2022-08-12T10:17:29.549Z,33.18
2022-08-12T10:19:59.597Z,32.53
2022-08-12T10:22:39.157Z,32.68
2022-08-12T10:26:35.906Z,32.54
2022-08-12T10:28:35.997Z,30.69
2022-08-12T10:31:06.284Z,30.92
2022-08-12T10:33:55.186Z,31.47
2022-08-12T10:36:36.285Z,30.48
2022-08-12T10:40:02.308Z,30.42
2022-08-12T10:42:14.083Z,29.84
2022-08-12T10:44:43.057Z,31.34
2022-08-12T10:47:26.051Z,31.63
2022-08-12T10:50:07.071Z,30.69
2022-08-12T10:52:42.338Z,30.73
2022-08-12T10:55:13.087Z,30.41
2022-08-12T10:57:50.493Z,30.99
2022-08-12T11:00:35.606Z,31.01
2022-08-12T11:04:23.739Z,30.13
2022-08-12T11:07:09.588Z,30.29
2022-08-12T11:08:42.438Z,30.01
2022-08-12T11:12:07.918Z,31.24
2022-08-12T11:14:05.439Z,29.93
2022-08-12T11:16:34.655Z,30.14
2022-08-12T11:19:05.668Z,28.57
2022-08-12T11:21:56.593Z,28.53
2022-08-12T11:24:31.920Z,27.63
2022-08-12T11:27:07.999Z,27.25
2022-08-12T11:30:05.545Z,28.88
2022-08-12T11:32:28.351Z,28.44
2022-08-12T11:34:59.408Z,27.32
2022-08-12T11:37:27.101Z,26.98
2022-08-12T11:42:34.819Z,28.55
2022-08-12T11:45:03.553Z,27.99
2022-08-12T11:47:34.341Z,26.55
2022-08-12T11:50:11.920Z,27.56
2022-08-12T11:52:55.649Z,29.24
2022-08-12T11:55:24.886Z,26.94
2022-08-12T11:58:59.289Z,26.14
2022-08-12T12:03:44.092Z,26.53
2022-08-12T12:06:16.341Z,26.14
2022-08-12T12:08:52.790Z,26.26
2022-08-12T12:11:22.268Z,26.71
2022-08-12T12:14:08.150Z,26.00
2022-08-12T12:16:39.782Z,27.09
2022-08-12T12:19:10.418Z,26.93
2022-08-12T12:21:46.960Z,27.14
2022-08-12T12:24:20.838Z,27.10
2022-08-12T12:26:59.796Z,24.65
2022-08-12T12:30:18.483Z,25.83
2022-08-12T12:32:16.467Z,25.58
2022-08-12T12:35:14.570Z,26.06
2022-08-12T12:38:03.292Z,25.57
2022-08-12T12:40:20.660Z,25.74
2022-08-12T12:42:56.711Z,26.96
2022-08-12T12:45:32.556Z,27.34
2022-08-12T12:48:02.781Z,27.13
2022-08-12T12:50:35.469Z,25.84
2022-08-12T12:53:05.844Z,25.71
2022-08-12T12:55:35.826Z,25.77
2022-08-12T12:58:04.635Z,26.61
2022-08-12T13:00:33.383Z,25.76
2022-08-12T13:03:01.041Z,25.64
2022-08-12T13:05:42.664Z,26.21
2022-08-12T13:08:28.235Z,25.75
2022-08-12T13:11:00.316Z,27.29
2022-08-12T13:14:10.120Z,27.03
2022-08-12T13:16:21.442Z,26.96
2022-08-12T13:18:49.279Z,26.10
2022-08-12T13:21:32.674Z,26.46
2022-08-12T13:24:02.544Z,26.16
2022-08-12T13:26:37.803Z,25.58
2022-08-12T13:29:05.374Z,24.87
2022-08-12T13:31:35.579Z,25.32
2022-08-12T13:34:31.861Z,24.92
2022-08-12T13:37:09.055Z,24.94
2022-08-12T13:39:39.174Z,24.61
2022-08-12T13:42:14.686Z,24.24
2022-08-12T13:44:42.905Z,26.01
2022-08-12T13:47:19.514Z,24.43
2022-08-12T13:49:55.186Z,24.42
2022-08-12T13:52:25.672Z,24.13
2022-08-12T13:54:55.140Z,24.40
2022-08-12T13:57:25.490Z,24.02
2022-08-12T13:59:55.661Z,24.93
2022-08-12T14:02:28.529Z,24.11
2022-08-12T14:04:57.051Z,24.52
2022-08-12T14:07:27.517Z,24.52
2022-08-12T14:10:16.311Z,24.41
2022-08-12T14:12:54.251Z,24.82
2022-08-12T14:15:37.047Z,24.44
2022-08-12T14:18:13.313Z,23.93
2022-08-12T14:20:41.747Z,23.46
2022-08-12T14:23:16.577Z,23.33
2022-08-12T14:26:05.153Z,23.20
2022-08-12T14:28:34.881Z,23.54
2022-08-12T14:31:05.494Z,23.53
2022-08-12T14:33:48.284Z,23.91
2022-08-12T14:36:20.503Z,23.34
2022-08-12T14:38:52.463Z,23.60
2022-08-12T14:41:22.011Z,24.24
2022-08-12T14:44:04.489Z,23.54
2022-08-12T14:46:39.877Z,24.47
2022-08-12T14:49:11.497Z,23.68
2022-08-12T14:52:43.912Z,23.69
2022-08-12T14:57:57.096Z,23.35
2022-08-12T15:00:50.703Z,23.64
2022-08-12T15:03:20.594Z,23.57
2022-08-12T15:06:05.451Z,23.34
2022-08-12T15:08:38.585Z,24.66
2022-08-12T15:11:13.564Z,23.15
2022-08-12T15:13:45.652Z,23.21
2022-08-12T15:16:14.294Z,22.78
2022-08-12T15:18:55.491Z,22.96
2022-08-12T15:22:35.758Z,22.86
2022-08-12T15:24:16.299Z,22.34
2022-08-12T15:26:46.571Z,22.93
2022-08-12T15:29:14.258Z,22.47
2022-08-12T15:32:00.912Z,23.22
2022-08-12T15:34:30.761Z,22.80
2022-08-12T15:36:58.570Z,22.86
2022-08-12T15:39:27.868Z,22.92
2022-08-12T15:42:01.945Z,23.06
2022-08-12T15:44:38.255Z,23.32
2022-08-12T15:47:10.159Z,22.80
2022-08-12T15:49:43.405Z,23.20
2022-08-12T15:52:27.524Z,23.54
2022-08-12T15:54:58.775Z,23.81
2022-08-12T15:57:28.162Z,23.96
2022-08-12T16:00:07.544Z,23.52
2022-08-12T16:02:51.021Z,24.02
2022-08-12T16:06:12.196Z,23.96
2022-08-12T16:08:15.261Z,23.97
2022-08-12T16:10:45.067Z,24.40
2022-08-12T16:13:18.174Z,24.22
2022-08-12T16:16:02.418Z,24.70
2022-08-12T16:18:31.302Z,24.95
2022-08-12T16:20:58.922Z,24.94
2022-08-12T16:23:51.667Z,24.17
2022-08-12T16:26:20.338Z,24.50
2022-08-12T16:28:56.975Z,24.81
2022-08-12T16:31:24.650Z,23.91
2022-08-12T16:34:00.361Z,24.10
2022-08-12T16:36:29.565Z,24.35
2022-08-12T16:38:57.727Z,24.15
2022-08-12T16:41:39.923Z,23.96
2022-08-12T16:44:09.506Z,23.90
2022-08-12T16:46:38.301Z,23.83
2022-08-12T16:49:08.964Z,24.34
2022-08-12T16:51:46.517Z,24.19
2022-08-12T16:54:16.561Z,24.57
2022-08-12T16:56:50.614Z,24.22
2022-08-12T16:59:25.494Z,24.34
2022-08-12T17:01:54.221Z,24.21
2022-08-12T17:04:24.428Z,25.23
2022-08-12T17:06:52.797Z,24.54
2022-08-12T17:09:20.505Z,24.70
2022-08-12T17:11:49.087Z,24.78
2022-08-12T17:14:20.378Z,24.76
2022-08-12T17:16:54.756Z,25.26
2022-08-12T17:20:29.143Z,24.59
2022-08-12T17:22:15.334Z,26.84
2022-08-12T17:24:50.654Z,25.45
2022-08-12T17:27:23.823Z,25.26
2022-08-12T17:30:03.074Z,25.59
2022-08-12T17:32:35.850Z,25.13
2022-08-12T17:35:23.265Z,25.95
2022-08-12T17:37:59.613Z,25.18
2022-08-12T17:40:35.333Z,25.23
2022-08-12T17:43:57.933Z,25.54
2022-08-12T17:45:58.714Z,25.95
2022-08-12T17:48:35.030Z,25.65
2022-08-12T17:51:15.609Z,26.31
2022-08-12T17:54:10.936Z,26.34
2022-08-12T17:56:36.771Z,27.27
2022-08-12T17:59:04.634Z,27.01
2022-08-12T18:01:35.932Z,26.96
2022-08-12T18:04:21.348Z,26.49
2022-08-12T18:06:50.562Z,28.16
2022-08-12T18:09:19.349Z,27.61
2022-08-12T18:12:07.820Z,28.64
2022-08-12T18:14:37.341Z,27.88
2022-08-12T18:17:09.494Z,28.42
2022-08-12T18:20:05.168Z,27.84
2022-08-12T18:22:30.994Z,26.64
2022-08-12T18:25:03.627Z,26.95
2022-08-12T18:27:46.696Z,27.89
2022-08-12T18:30:20.317Z,26.99
2022-08-12T18:32:58.215Z,26.92
2022-08-12T18:35:47.101Z,27.00
2022-08-12T18:38:18.111Z,29.21
2022-08-12T18:41:06.063Z,28.20
2022-08-12T18:43:57.692Z,27.83
2022-08-12T18:46:27.490Z,28.30
2022-08-12T18:49:16.854Z,28.63
2022-08-12T18:51:55.588Z,29.48
2022-08-12T18:54:34.627Z,30.30
2022-08-12T18:57:07.093Z,30.94
2022-08-12T19:00:02.370Z,31.11
2022-08-12T19:02:39.670Z,30.92
2022-08-12T19:05:09.611Z,32.98
2022-08-12T19:07:49.537Z,33.18
2022-08-12T19:10:25.848Z,33.72
2022-08-12T19:13:15.673Z,33.43
2022-08-12T19:15:48.967Z,35.83
2022-08-12T19:18:16.905Z,36.78
2022-08-12T19:20:47.896Z,38.54
2022-08-12T19:23:20.925Z,39.77
2022-08-12T19:25:59.285Z,39.95
2022-08-12T19:28:35.706Z,42.17
2022-08-12T19:31:44.548Z,44.14
2022-08-12T19:37:17.947Z,43.01
2022-08-12T19:40:10.003Z,43.83
2022-08-12T19:42:42.729Z,44.36
2022-08-12T19:45:13.896Z,45.22
2022-08-12T19:47:44.585Z,46.82
2022-08-12T19:50:14.741Z,48.17
2022-08-12T19:52:53.413Z,46.68
2022-08-12T19:55:25.546Z,50.22
2022-08-12T19:58:02.996Z,50.55
2022-08-12T20:00:34.858Z,52.28
2022-08-12T20:03:04.785Z,51.39
2022-08-12T20:06:04.701Z,53.16
2022-08-12T20:08:31.640Z,53.52
2022-08-12T20:12:09.617Z,53.82
2022-08-12T20:14:01.109Z,52.93
2022-08-12T20:16:52.902Z,55.58
2022-08-12T20:19:17.187Z,55.90
2022-08-12T20:21:45.222Z,56.01
2022-08-12T20:24:14.476Z,54.22
2022-08-12T20:26:44.095Z,55.97
2022-08-12T20:29:14.648Z,54.66
2022-08-12T20:31:44.267Z,51.60
2022-08-12T20:34:12.500Z,51.74
2022-08-12T20:36:44.203Z,51.76
2022-08-12T20:39:37.222Z,52.11
2022-08-12T20:42:07.467Z,53.50
2022-08-12T20:44:39.809Z,56.84
2022-08-12T20:47:18.274Z,55.73
2022-08-12T20:49:54.866Z,55.19
2022-08-12T20:52:25.269Z,54.02
2022-08-12T20:54:53.799Z,53.45
2022-08-12T20:57:25.262Z,53.92
2022-08-12T21:00:16.511Z,53.68
2022-08-12T21:02:45.522Z,56.19
2022-08-12T21:06:12.086Z,57.68
2022-08-12T21:08:26.362Z,58.88
2022-08-12T21:10:54.473Z,57.56
2022-08-12T21:13:29.475Z,56.38
2022-08-12T21:16:10.024Z,56.63
2022-08-12T21:18:38.387Z,56.76
2022-08-12T21:21:06.665Z,58.20
2022-08-12T21:23:37.126Z,58.59
2022-08-12T21:26:12.360Z,60.27
2022-08-12T21:28:56.681Z,58.78
2022-08-12T21:32:39.507Z,56.40
2022-08-12T21:34:17.830Z,55.73
2022-08-12T21:36:49.409Z,55.24
2022-08-12T21:39:21.176Z,54.53
2022-08-12T21:41:51.751Z,52.58
2022-08-12T21:44:24.288Z,56.90
2022-08-12T21:47:20.984Z,56.20
2022-08-12T21:49:55.603Z,53.60
2022-08-12T21:52:34.560Z,56.61
2022-08-12T21:55:08.407Z,59.92
2022-08-12T21:57:50.486Z,61.87
2022-08-12T22:00:33.291Z,64.56
2022-08-12T22:04:03.436Z,61.91
2022-08-12T22:06:31.584Z,62.31
2022-08-12T22:09:15.444Z,62.39
2022-08-12T22:11:49.126Z,60.06
2022-08-12T22:14:25.059Z,62.87
2022-08-12T22:16:56.111Z,61.63
2022-08-12T22:19:23.948Z,61.37
2022-08-12T22:21:53.977Z,57.17
2022-08-12T22:24:26.318Z,56.54
2022-08-12T22:26:57.403Z,53.74
2022-08-12T22:29:43.071Z,55.58
2022-08-12T22:32:13.124Z,50.11
2022-08-12T22:34:40.707Z,49.93
2022-08-12T22:37:20.164Z,51.57
2022-08-12T22:39:49.180Z,53.65
2022-08-12T22:42:34.835Z,54.64
2022-08-12T22:45:23.359Z,57.15
2022-08-12T22:47:55.145Z,54.27
2022-08-12T22:50:28.545Z,55.44
2022-08-12T22:53:14.637Z,56.81
2022-08-12T22:55:59.796Z,57.94
2022-08-12T22:58:33.209Z,55.51
2022-08-12T23:01:02.452Z,51.01
2022-08-12T23:03:47.955Z,48.95
2022-08-12T23:06:19.410Z,47.45
2022-08-12T23:08:48.055Z,47.71
2022-08-12T23:11:17.101Z,48.89
2022-08-12T23:13:54.921Z,49.91
2022-08-12T23:16:29.345Z,49.54
2022-08-12T23:19:10.443Z,49.09
2022-08-12T23:22:05.890Z,49.42
2022-08-12T23:24:37.220Z,48.40
2022-08-12T23:27:44.139Z,48.27
2022-08-12T23:30:24.958Z,48.41
2022-08-12T23:33:00.593Z,48.58
2022-08-12T23:35:54.085Z,48.93
2022-08-12T23:38:30.579Z,50.33
2022-08-12T23:41:00.969Z,50.52
2022-08-12T23:43:39.447Z,53.78
2022-08-12T23:46:09.452Z,54.23
2022-08-12T23:48:37.444Z,55.57
2022-08-12T23:51:22.666Z,54.99
2022-08-12T23:53:55.066Z,53.73
2022-08-12T23:56:23.729Z,54.02
2022-08-12T23:58:52.706Z,52.92
